createdAt,value
2023-04-29T00:03:44.852Z,8.90
2023-04-29T00:08:52.244Z,8.90
2023-04-29T00:13:58.324Z,8.90
2023-04-29T00:19:03.538Z,8.80
2023-04-29T00:24:08.764Z,8.90
2023-04-29T00:29:13.940Z,8.80
2023-04-29T00:34:19.015Z,8.80
2023-04-29T00:39:24.125Z,8.70
2023-04-29T00:44:29.148Z,8.70
2023-04-29T00:49:34.236Z,8.60
2023-04-29T00:54:40.905Z,8.60
2023-04-29T00:59:46.551Z,8.50
2023-04-29T01:04:51.769Z,8.40
2023-04-29T01:10:26.146Z,8.30
2023-04-29T01:15:49.615Z,8.30
2023-04-29T01:20:56.453Z,8.20
2023-04-29T01:26:01.645Z,8.20
2023-04-29T01:31:10.017Z,8.10
2023-04-29T01:36:36.423Z,8.10
2023-04-29T01:41:47.411Z,8.00
2023-04-29T01:46:54.683Z,8.00
2023-04-29T01:51:59.839Z,8.00
2023-04-29T01:57:05.233Z,8.00
2023-04-29T02:02:10.455Z,7.90
2023-04-29T02:07:16.026Z,7.90
2023-04-29T02:12:21.146Z,7.90
2023-04-29T02:17:26.758Z,7.80
2023-04-29T02:22:31.924Z,7.80
2023-04-29T02:27:37.052Z,7.80
2023-04-29T02:32:42.238Z,7.70
2023-04-29T02:37:47.508Z,7.70
2023-04-29T02:42:52.848Z,7.70
2023-04-29T02:47:57.929Z,7.70
2023-04-29T02:53:03.199Z,7.70
2023-04-29T02:58:08.298Z,7.70
2023-04-29T03:03:13.534Z,7.70
2023-04-29T03:08:18.988Z,7.70
2023-04-29T03:13:24.190Z,7.70
2023-04-29T03:18:30.514Z,7.70
2023-04-29T03:23:35.802Z,7.60
2023-04-29T03:28:41.055Z,7.60
2023-04-29T03:33:46.196Z,7.60
2023-04-29T03:38:51.344Z,7.70
2023-04-29T03:43:58.152Z,7.70
2023-04-29T03:49:04.450Z,7.70
2023-04-29T03:54:10.146Z,7.70
2023-04-29T03:59:15.401Z,7.80
2023-04-29T04:04:21.112Z,7.80
2023-04-29T04:09:26.584Z,7.90
2023-04-29T04:14:31.890Z,7.90
2023-04-29T04:19:37.890Z,8.10
2023-04-29T04:24:42.952Z,8.10
2023-04-29T04:29:48.191Z,8.20
2023-04-29T04:34:53.329Z,8.20
2023-04-29T04:39:58.475Z,8.30
2023-04-29T04:45:03.978Z,8.40
2023-04-29T04:50:09.664Z,8.40
2023-04-29T04:55:15.228Z,8.50
2023-04-29T05:00:20.457Z,8.60
2023-04-29T05:05:25.679Z,8.80
2023-04-29T05:10:30.887Z,8.90
2023-04-29T05:15:36.809Z,9.10
2023-04-29T05:20:42.812Z,9.30
2023-04-29T05:25:48.085Z,9.40
2023-04-29T05:30:53.577Z,9.60
2023-04-29T05:35:58.732Z,9.60
2023-04-29T05:41:04.052Z,9.80
2023-04-29T05:46:09.136Z,9.90
2023-04-29T05:51:14.818Z,10.00
2023-04-29T05:56:20.425Z,10.00
2023-04-29T06:01:25.644Z,10.30
2023-04-29T06:06:31.049Z,10.30
2023-04-29T06:11:36.535Z,10.60
2023-04-29T06:16:42.282Z,10.80
2023-04-29T06:21:47.848Z,10.90
2023-04-29T06:26:52.949Z,10.90
2023-04-29T06:31:58.075Z,10.90
2023-04-29T06:37:03.292Z,10.90
2023-04-29T06:42:08.506Z,11.10
2023-04-29T06:47:13.905Z,11.20
2023-04-29T06:52:19.207Z,11.30
2023-04-29T06:57:24.433Z,11.50
2023-04-29T07:02:29.586Z,11.90
2023-04-29T07:07:34.997Z,12.10
2023-04-29T07:12:40.063Z,12.30
2023-04-29T07:17:45.233Z,12.40
2023-04-29T07:22:51.740Z,12.40
2023-04-29T07:27:57.306Z,12.50
2023-04-29T07:33:02.542Z,12.60
2023-04-29T07:38:07.993Z,12.70
2023-04-29T07:43:13.222Z,12.80
2023-04-29T07:48:18.666Z,13.00
2023-04-29T07:53:23.901Z,13.10
2023-04-29T07:58:29.647Z,13.20
2023-04-29T08:03:35.899Z,13.30
2023-04-29T08:08:42.532Z,13.20
2023-04-29T08:13:48.795Z,13.10
2023-04-29T08:18:54.528Z,12.90
2023-04-29T08:24:00.411Z,12.50
2023-04-29T08:29:05.613Z,12.40
2023-04-29T08:34:10.813Z,12.40
2023-04-29T08:39:16.101Z,12.30
2023-04-29T08:44:21.896Z,12.30
2023-04-29T08:49:27.291Z,12.20
2023-04-29T08:54:33.454Z,12.30
2023-04-29T08:59:39.289Z,12.20
2023-04-29T09:05:08.575Z,12.10
2023-04-29T09:10:15.300Z,12.20
2023-04-29T09:15:20.608Z,12.20
2023-04-29T09:20:27.927Z,12.20
2023-04-29T09:25:33.200Z,12.10
2023-04-29T09:30:41.417Z,11.60
2023-04-29T09:35:48.216Z,11.70
2023-04-29T09:40:59.371Z,11.70
2023-04-29T09:46:01.242Z,11.80
2023-04-29T09:51:07.392Z,12.00
2023-04-29T09:56:12.689Z,12.10
2023-04-29T10:01:23.063Z,12.00
2023-04-29T10:06:30.231Z,12.10
2023-04-29T10:11:37.497Z,12.10
2023-04-29T10:16:48.852Z,12.10
2023-04-29T10:21:57.207Z,12.10
2023-04-29T10:27:03.840Z,12.40
2023-04-29T10:32:13.412Z,12.40
2023-04-29T10:37:18.988Z,12.50
2023-04-29T10:42:39.610Z,12.50
2023-04-29T10:47:49.014Z,12.60
2023-04-29T10:52:57.456Z,12.80
2023-04-29T10:58:04.255Z,12.90
2023-04-29T11:03:16.989Z,13.00
2023-04-29T11:08:24.512Z,13.20
2023-04-29T11:13:34.726Z,13.40
2023-04-29T11:19:16.272Z,13.80
2023-04-29T11:24:31.142Z,14.10
2023-04-29T11:29:45.420Z,14.10
2023-04-29T11:35:04.160Z,14.10
2023-04-29T11:40:25.154Z,14.50
2023-04-29T11:51:43.773Z,15.60
2023-04-29T11:56:50.528Z,15.60
2023-04-29T12:07:46.760Z,15.60
2023-04-29T12:13:12.326Z,15.80
2023-04-29T12:18:20.131Z,15.70
2023-04-29T12:23:29.993Z,16.00
2023-04-29T12:28:35.829Z,16.30
2023-04-29T12:33:47.922Z,16.70
2023-04-29T12:38:55.556Z,17.10
2023-04-29T12:44:01.611Z,17.10
2023-04-29T12:49:08.132Z,17.00
2023-04-29T12:54:13.370Z,17.10
2023-04-29T12:59:18.623Z,17.40
2023-04-29T13:04:24.089Z,16.90
2023-04-29T13:09:30.521Z,16.90
2023-04-29T13:14:35.797Z,16.80
2023-04-29T13:19:51.042Z,16.80
2023-04-29T13:24:47.913Z,16.80
2023-04-29T13:29:53.704Z,17.20
2023-04-29T13:34:58.906Z,17.70
2023-04-29T13:40:07.216Z,17.60
2023-04-29T13:45:11.981Z,17.40
2023-04-29T13:51:00.960Z,17.40
2023-04-29T14:01:01.899Z,17.50
2023-04-29T14:05:39.486Z,17.80
2023-04-29T14:10:45.130Z,17.90
2023-04-29T14:15:50.664Z,17.70
2023-04-29T14:20:55.776Z,18.00
2023-04-29T14:31:08.208Z,18.00
2023-04-29T14:36:13.621Z,18.00
2023-04-29T14:41:19.121Z,18.00
2023-04-29T14:46:25.365Z,17.80
2023-04-29T14:51:31.537Z,17.80
2023-04-29T14:56:38.252Z,17.60
2023-04-29T15:01:43.334Z,17.60
2023-04-29T15:06:48.611Z,17.60
2023-04-29T15:11:53.953Z,17.70
2023-04-29T15:16:59.250Z,17.70
2023-04-29T15:22:04.479Z,17.70
2023-04-29T15:27:09.589Z,17.40
2023-04-29T15:32:15.379Z,17.30
2023-04-29T15:37:22.494Z,17.20
2023-04-29T15:42:29.114Z,17.20
2023-04-29T15:47:34.449Z,17.30
2023-04-29T15:52:39.631Z,17.30
2023-04-29T15:57:44.715Z,17.30
2023-04-29T16:02:49.882Z,17.20
2023-04-29T16:07:55.073Z,17.10
2023-04-29T16:13:01.017Z,17.00
2023-04-29T16:18:06.526Z,17.00
2023-04-29T16:23:11.685Z,17.00
2023-04-29T16:28:17.574Z,17.00
2023-04-29T16:33:24.877Z,16.90
2023-04-29T16:38:30.803Z,16.80
2023-04-29T16:43:35.941Z,16.80
2023-04-29T16:48:41.173Z,16.60
2023-04-29T16:53:46.380Z,16.60
2023-04-29T16:58:51.747Z,16.60
2023-04-29T17:03:57.097Z,16.50
2023-04-29T17:09:02.606Z,16.40
2023-04-29T17:14:07.747Z,16.40
2023-04-29T17:19:13.757Z,16.30
2023-04-29T17:24:18.916Z,16.20
2023-04-29T17:29:24.013Z,16.10
2023-04-29T17:34:30.742Z,16.00
2023-04-29T17:39:36.680Z,15.80
2023-04-29T17:44:42.297Z,15.70
2023-04-29T17:49:47.625Z,15.70
2023-04-29T17:54:52.786Z,15.60
2023-04-29T17:59:58.010Z,15.40
2023-04-29T18:05:04.582Z,15.30
2023-04-29T18:10:10.546Z,15.20
2023-04-29T18:15:16.698Z,14.80
2023-04-29T18:20:23.057Z,14.40
2023-04-29T18:25:28.292Z,14.10
2023-04-29T18:30:34.321Z,13.80
2023-04-29T18:35:39.535Z,13.50
2023-04-29T18:40:47.092Z,13.30
2023-04-29T18:45:53.802Z,13.20
2023-04-29T18:51:03.694Z,13.10
2023-04-29T18:56:10.754Z,13.00
2023-04-29T19:01:26.961Z,12.90
2023-04-29T19:06:40.570Z,12.80
2023-04-29T19:17:30.769Z,12.70
2023-04-29T19:22:44.735Z,12.70
2023-04-29T19:27:51.648Z,12.60
2023-04-29T19:33:07.151Z,12.50
2023-04-29T19:38:14.335Z,12.40
2023-04-29T19:43:20.993Z,12.30
2023-04-29T19:48:34.291Z,12.20
2023-04-29T19:53:43.376Z,12.20
2023-04-29T19:58:54.574Z,12.10
2023-04-29T20:04:05.908Z,12.10
2023-04-29T20:09:10.102Z,12.00
2023-04-29T20:14:16.906Z,11.90
2023-04-29T20:19:22.442Z,11.80
2023-04-29T20:24:32.606Z,11.70
2023-04-29T20:29:39.285Z,11.70
2023-04-29T20:34:49.332Z,11.80
2023-04-29T20:39:54.612Z,11.80
2023-04-29T20:45:04.017Z,11.70
2023-04-29T20:50:15.123Z,11.70
2023-04-29T20:55:19.766Z,11.70
2023-04-29T21:00:25.081Z,11.60
2023-04-29T21:05:38.409Z,11.60
2023-04-29T21:10:48.072Z,11.50
2023-04-29T21:15:55.548Z,11.40
2023-04-29T21:21:03.960Z,11.40
2023-04-29T21:26:11.243Z,11.40
2023-04-29T21:31:17.294Z,11.30
2023-04-29T21:36:30.812Z,11.10
2023-04-29T21:41:40.154Z,10.90
2023-04-29T21:46:48.650Z,10.70
2023-04-29T21:51:55.914Z,10.60
2023-04-29T21:57:04.026Z,10.40
2023-04-29T22:02:16.490Z,10.40
2023-04-29T22:07:23.639Z,10.40
2023-04-29T22:12:28.832Z,10.30
2023-04-29T22:17:34.100Z,10.30
2023-04-29T22:22:43.483Z,10.30
2023-04-29T22:27:49.371Z,10.30
2023-04-29T22:32:55.324Z,10.30
2023-04-29T22:38:02.063Z,10.30
2023-04-29T22:43:07.690Z,10.20
2023-04-29T22:48:14.136Z,10.10
2023-04-29T22:53:21.567Z,10.00
2023-04-29T22:58:27.478Z,10.00
2023-04-29T23:03:33.814Z,9.90
2023-04-29T23:08:39.561Z,9.70
2023-04-29T23:13:46.658Z,9.50
2023-04-29T23:18:52.997Z,9.40
2023-04-29T23:23:59.708Z,9.30
2023-04-29T23:29:04.951Z,9.20
2023-04-29T23:34:10.204Z,9.10
2023-04-29T23:39:19.473Z,9.10
2023-04-29T23:44:25.424Z,9.00
2023-04-29T23:49:31.173Z,8.90
2023-04-29T23:54:36.252Z,8.70
2023-04-29T23:59:42.751Z,8.50
